createdAt,value
2023-01-12T00:02:22.237Z,26.58
2023-01-12T00:04:50.931Z,28.15
2023-01-12T00:07:20.599Z,27.77
2023-01-12T00:09:49.131Z,26.80
2023-01-12T00:12:17.517Z,27.60
2023-01-12T00:14:47.953Z,26.83
2023-01-12T00:17:19.654Z,26.45
2023-01-12T00:19:48.043Z,28.92
2023-01-12T00:22:18.455Z,27.70
2023-01-12T00:24:49.855Z,25.80
2023-01-12T00:27:20.325Z,26.73
2023-01-12T00:29:50.748Z,23.85
2023-01-12T00:32:20.827Z,27.63
2023-01-12T00:34:49.364Z,25.77
2023-01-12T00:37:18.082Z,25.75
2023-01-12T00:40:00.956Z,26.25
2023-01-12T00:42:47.994Z,26.83
2023-01-12T00:45:23.511Z,25.75
2023-01-12T00:47:51.994Z,24.63
2023-01-12T00:50:20.210Z,25.65
2023-01-12T00:52:48.472Z,24.63
2023-01-12T00:55:16.742Z,25.38
2023-01-12T00:57:44.950Z,26.65
2023-01-12T01:00:14.169Z,24.75
2023-01-12T01:02:43.834Z,24.17
2023-01-12T01:05:12.064Z,23.90
2023-01-12T01:07:40.290Z,25.63
2023-01-12T01:10:09.570Z,25.80
2023-01-12T01:12:37.817Z,25.65
2023-01-12T01:15:06.761Z,24.52
2023-01-12T01:17:35.380Z,26.30
2023-01-12T01:20:06.111Z,24.80
2023-01-12T01:22:34.349Z,25.30
2023-01-12T01:25:02.572Z,24.08
2023-01-12T01:27:30.803Z,24.23
2023-01-12T01:29:59.075Z,26.17
2023-01-12T01:32:27.264Z,25.85
2023-01-12T01:34:55.495Z,24.67
2023-01-12T01:37:25.095Z,25.27
2023-01-12T01:39:53.300Z,24.58
2023-01-12T01:42:28.901Z,26.48
2023-01-12T01:45:07.569Z,24.45
2023-01-12T01:47:40.849Z,27.10
2023-01-12T01:50:17.140Z,23.98
2023-01-12T01:52:51.312Z,25.30
2023-01-12T01:55:23.503Z,24.67
2023-01-12T01:57:56.374Z,25.25
2023-01-12T02:00:26.173Z,23.90
2023-01-12T02:02:55.654Z,23.65
2023-01-12T02:05:26.877Z,25.50
2023-01-12T02:08:01.317Z,26.20
2023-01-12T02:10:29.589Z,25.42
2023-01-12T02:13:15.588Z,27.60
2023-01-12T02:19:21.216Z,26.73
2023-01-12T02:22:28.467Z,25.17
2023-01-12T02:25:29.555Z,26.35
2023-01-12T02:28:26.158Z,25.42
2023-01-12T02:31:39.968Z,26.08
2023-01-12T02:34:25.603Z,25.65
2023-01-12T02:37:05.303Z,26.73
2023-01-12T02:39:41.029Z,25.45
2023-01-12T02:42:34.958Z,25.67
2023-01-12T02:45:10.553Z,27.67
2023-01-12T02:47:48.181Z,26.58
2023-01-12T02:50:20.203Z,27.55
2023-01-12T02:52:53.400Z,26.90
2023-01-12T02:55:22.339Z,26.27
2023-01-12T02:57:51.473Z,26.88
2023-01-12T03:00:20.327Z,25.08
2023-01-12T03:02:50.747Z,25.90
2023-01-12T03:05:27.797Z,24.52
2023-01-12T03:08:00.051Z,25.65
2023-01-12T03:10:48.806Z,25.88
2023-01-12T03:13:18.999Z,27.00
2023-01-12T03:15:51.132Z,27.02
2023-01-12T03:18:28.520Z,25.00
2023-01-12T03:21:02.044Z,26.60
2023-01-12T03:23:35.374Z,25.73
2023-01-12T03:26:05.770Z,26.42
2023-01-12T03:28:37.619Z,24.27
2023-01-12T03:31:11.153Z,24.55
2023-01-12T03:33:41.871Z,26.02
2023-01-12T03:36:17.998Z,25.15
2023-01-12T03:38:52.961Z,24.20
2023-01-12T03:41:28.473Z,25.10
2023-01-12T03:44:00.515Z,25.13
2023-01-12T03:46:34.544Z,26.33
2023-01-12T03:49:08.659Z,27.92
2023-01-12T03:51:39.660Z,25.80
2023-01-12T03:54:11.041Z,24.52
2023-01-12T03:56:40.846Z,27.27
2023-01-12T03:59:09.796Z,27.83
2023-01-12T04:01:38.388Z,24.77
2023-01-12T04:04:08.337Z,25.30
2023-01-12T04:06:36.521Z,27.15
2023-01-12T04:09:04.936Z,27.80
2023-01-12T04:11:49.560Z,26.67
2023-01-12T04:14:17.743Z,26.50
2023-01-12T04:16:46.891Z,26.27
2023-01-12T04:19:16.545Z,28.45
2023-01-12T04:22:02.605Z,25.27
2023-01-12T04:24:30.895Z,27.52
2023-01-12T04:26:59.172Z,29.38
2023-01-12T04:29:27.466Z,28.88
2023-01-12T04:31:55.648Z,26.60
2023-01-12T04:34:25.278Z,28.92
2023-01-12T04:36:53.580Z,27.48
2023-01-12T04:39:21.763Z,27.30
2023-01-12T04:41:50.024Z,29.95
2023-01-12T04:44:18.247Z,29.75
2023-01-12T04:46:46.620Z,30.40
2023-01-12T04:49:14.800Z,29.85
2023-01-12T04:51:44.544Z,29.88
2023-01-12T04:54:12.875Z,29.13
2023-01-12T04:56:41.126Z,29.13
2023-01-12T04:59:10.765Z,29.10
2023-01-12T05:01:39.728Z,28.17
2023-01-12T05:04:08.277Z,30.88
2023-01-12T05:06:36.511Z,28.52
2023-01-12T05:09:23.403Z,30.10
2023-01-12T05:11:51.923Z,28.33
2023-01-12T05:14:20.079Z,28.13
2023-01-12T05:16:49.284Z,30.17
2023-01-12T05:19:17.466Z,28.50
2023-01-12T05:21:45.658Z,29.02
2023-01-12T05:24:15.301Z,30.10
2023-01-12T05:26:43.514Z,27.52
2023-01-12T05:29:13.525Z,26.90
2023-01-12T05:31:41.797Z,29.00
2023-01-12T05:34:09.963Z,28.88
2023-01-12T05:36:38.344Z,31.20
2023-01-12T05:39:06.747Z,28.83
2023-01-12T05:41:36.390Z,30.67
2023-01-12T05:44:04.092Z,29.35
2023-01-12T05:46:33.324Z,30.13
2023-01-12T05:49:01.599Z,28.92
2023-01-12T05:51:31.000Z,29.65
2023-01-12T05:53:59.452Z,30.33
2023-01-12T05:56:30.488Z,30.50
2023-01-12T05:59:01.593Z,29.92
2023-01-12T06:01:30.878Z,31.40
2023-01-12T06:04:00.797Z,29.52
2023-01-12T06:06:31.663Z,32.15
2023-01-12T06:09:00.763Z,31.13
2023-01-12T06:11:51.812Z,31.40
2023-01-12T06:14:21.467Z,30.67
2023-01-12T06:16:49.689Z,31.25
2023-01-12T06:19:17.915Z,32.00
2023-01-12T06:21:46.224Z,31.13
2023-01-12T06:24:14.444Z,32.85
2023-01-12T06:26:45.285Z,33.55
2023-01-12T06:29:13.807Z,32.33
2023-01-12T06:31:43.937Z,31.80
2023-01-12T06:34:12.238Z,29.25
2023-01-12T06:36:40.935Z,31.75
2023-01-12T06:39:09.189Z,33.50
2023-01-12T06:41:54.579Z,32.65
2023-01-12T06:44:22.908Z,31.70
2023-01-12T06:46:52.527Z,33.05
2023-01-12T06:49:20.882Z,31.77
2023-01-12T06:51:51.445Z,31.70
2023-01-12T06:54:19.918Z,33.28
2023-01-12T06:56:48.188Z,31.02
2023-01-12T06:59:16.437Z,30.48
2023-01-12T07:01:44.861Z,32.67
2023-01-12T07:04:14.760Z,34.60
2023-01-12T07:06:43.077Z,32.67
2023-01-12T07:09:11.250Z,32.00
2023-01-12T07:11:39.530Z,30.38
2023-01-12T07:14:09.204Z,32.70
2023-01-12T07:16:37.656Z,32.33
2023-01-12T07:19:06.113Z,35.13
2023-01-12T07:21:35.817Z,34.08
2023-01-12T07:24:04.190Z,33.15
2023-01-12T07:26:32.349Z,33.65
2023-01-12T07:29:00.583Z,34.90
2023-01-12T07:31:29.304Z,34.03
2023-01-12T07:33:57.515Z,34.40
2023-01-12T07:36:26.896Z,31.92
2023-01-12T07:38:56.532Z,33.60
2023-01-12T07:41:41.792Z,33.55
2023-01-12T07:44:10.437Z,34.00
2023-01-12T07:46:38.777Z,34.03
2023-01-12T07:49:07.006Z,34.90
2023-01-12T07:51:35.322Z,33.75
2023-01-12T07:54:05.042Z,31.58
2023-01-12T07:56:33.327Z,33.50
2023-01-12T07:59:01.611Z,32.35
2023-01-12T08:01:32.553Z,32.17
2023-01-12T08:04:00.900Z,35.28
2023-01-12T08:06:29.249Z,34.22
2023-01-12T08:08:57.526Z,32.63
2023-01-12T08:11:27.514Z,33.95
2023-01-12T08:13:56.514Z,33.58
2023-01-12T08:16:29.752Z,35.15
2023-01-12T08:19:01.990Z,33.65
2023-01-12T08:21:33.285Z,35.42
2023-01-12T08:24:05.067Z,34.17
2023-01-12T08:26:38.912Z,33.30
2023-01-12T08:29:13.164Z,34.20
2023-01-12T08:31:41.962Z,31.77
2023-01-12T08:34:10.954Z,33.28
2023-01-12T08:36:43.036Z,31.73
2023-01-12T08:39:12.142Z,32.00
2023-01-12T08:41:42.443Z,32.03
2023-01-12T08:44:11.237Z,30.20
2023-01-12T08:46:47.154Z,29.10
2023-01-12T08:49:17.212Z,31.67
2023-01-12T08:51:46.317Z,31.67
2023-01-12T08:54:16.130Z,31.65
2023-01-12T08:56:46.249Z,33.80
2023-01-12T08:59:14.698Z,31.80
2023-01-12T09:01:43.662Z,33.20
2023-01-12T09:04:11.967Z,33.40
2023-01-12T09:06:42.036Z,31.38
2023-01-12T09:09:12.147Z,34.35
2023-01-12T09:11:42.648Z,33.45
2023-01-12T09:14:13.804Z,32.30
2023-01-12T09:16:42.553Z,31.73
2023-01-12T09:19:11.447Z,31.05
2023-01-12T09:21:41.934Z,30.10
2023-01-12T09:24:11.012Z,30.75
2023-01-12T09:26:40.848Z,29.15
2023-01-12T09:29:09.841Z,28.35
2023-01-12T09:31:41.556Z,29.63
2023-01-12T09:34:10.118Z,27.63
2023-01-12T09:36:40.298Z,27.58
2023-01-12T09:39:15.357Z,29.40
2023-01-12T09:42:05.354Z,24.33
2023-01-12T09:44:55.229Z,27.80
2023-01-12T09:47:36.546Z,26.15
2023-01-12T09:50:10.621Z,26.17
2023-01-12T09:52:43.375Z,26.67
2023-01-12T09:55:17.604Z,24.10
2023-01-12T09:58:07.614Z,23.17
2023-01-12T10:00:36.011Z,23.35
2023-01-12T10:03:15.789Z,21.38
2023-01-12T10:05:48.823Z,22.08
2023-01-12T10:08:22.008Z,19.92
2023-01-12T10:11:01.601Z,18.90
2023-01-12T10:14:08.667Z,18.98
2023-01-12T10:16:47.938Z,18.95
2023-01-12T10:19:25.314Z,17.30
2023-01-12T10:21:55.420Z,18.73
2023-01-12T10:24:26.737Z,17.80
2023-01-12T10:27:02.387Z,17.30
2023-01-12T10:29:32.660Z,16.40
2023-01-12T10:32:01.098Z,16.80
2023-01-12T10:34:50.089Z,16.35
2023-01-12T10:37:18.364Z,16.67
2023-01-12T10:39:46.920Z,15.07
2023-01-12T10:42:38.078Z,15.48
2023-01-12T10:45:17.583Z,14.15
2023-01-12T10:47:46.922Z,13.80
2023-01-12T10:50:25.041Z,14.98
2023-01-12T10:52:58.715Z,14.23
2023-01-12T10:55:31.783Z,13.13
2023-01-12T10:58:00.519Z,14.15
2023-01-12T11:00:31.301Z,12.05
2023-01-12T11:02:59.872Z,11.98
2023-01-12T11:05:34.185Z,12.15
2023-01-12T11:08:03.134Z,12.15
2023-01-12T11:10:33.093Z,11.40
2023-01-12T11:13:04.487Z,11.65
2023-01-12T11:15:39.116Z,11.57
2023-01-12T11:18:27.860Z,10.70
2023-01-12T11:21:09.511Z,11.57
2023-01-12T11:23:44.631Z,11.50
2023-01-12T11:26:19.367Z,12.13
2023-01-12T11:28:54.566Z,11.00
2023-01-12T11:31:27.001Z,11.65
2023-01-12T11:33:59.863Z,11.88
2023-01-12T11:36:32.797Z,12.55
2023-01-12T11:39:06.696Z,12.05
2023-01-12T11:41:42.089Z,11.60
2023-01-12T11:44:16.814Z,12.88
2023-01-12T11:46:48.650Z,11.55
2023-01-12T11:49:33.622Z,11.55
2023-01-12T11:52:13.105Z,12.70
2023-01-12T11:54:44.111Z,12.77
2023-01-12T11:57:36.619Z,13.68
2023-01-12T12:00:20.343Z,12.18
2023-01-12T12:02:57.845Z,15.55
2023-01-12T12:05:40.460Z,13.88
2023-01-12T12:08:24.012Z,14.13
2023-01-12T12:10:58.117Z,15.95
2023-01-12T12:13:36.869Z,17.30
2023-01-12T12:16:19.764Z,16.10
2023-01-12T12:19:00.612Z,18.13
2023-01-12T12:21:57.600Z,18.85
2023-01-12T12:24:56.749Z,17.73
2023-01-12T12:27:37.515Z,17.08
2023-01-12T12:30:27.383Z,18.27
2023-01-12T12:33:06.951Z,20.13
2023-01-12T12:35:58.316Z,19.15
2023-01-12T12:39:04.508Z,19.67
2023-01-12T12:41:57.630Z,16.80
2023-01-12T12:44:58.161Z,18.75
2023-01-12T12:47:42.233Z,17.42
2023-01-12T12:50:18.467Z,17.13
2023-01-12T12:52:50.278Z,18.27
2023-01-12T12:55:18.802Z,15.13
2023-01-12T12:58:04.999Z,16.25
2023-01-12T13:00:40.596Z,15.25
2023-01-12T13:03:10.633Z,14.00
2023-01-12T13:05:44.244Z,15.27
2023-01-12T13:08:21.158Z,14.85
2023-01-12T13:11:01.183Z,14.13
2023-01-12T13:13:33.088Z,13.32
2023-01-12T13:16:46.694Z,13.15
2023-01-12T13:19:36.996Z,13.48
2023-01-12T13:22:28.108Z,14.30
2023-01-12T13:24:57.478Z,14.43
2023-01-12T13:27:54.262Z,14.50
2023-01-12T13:30:38.695Z,13.45
2023-01-12T13:33:23.671Z,13.57
2023-01-12T13:36:20.873Z,12.85
2023-01-12T13:39:08.457Z,13.82
2023-01-12T13:41:55.220Z,12.70
2023-01-12T13:44:28.573Z,12.10
2023-01-12T13:47:05.334Z,13.15
2023-01-12T13:49:35.055Z,11.68
2023-01-12T13:52:05.988Z,13.57
2023-01-12T13:54:35.501Z,10.43
2023-01-12T13:57:06.657Z,11.35
2023-01-12T13:59:35.310Z,10.32
2023-01-12T14:02:05.633Z,11.52
2023-01-12T14:05:00.577Z,10.63
2023-01-12T14:07:45.856Z,10.48
2023-01-12T14:10:28.931Z,9.93
2023-01-12T14:13:30.743Z,10.73
2023-01-12T14:16:20.844Z,9.27
2023-01-12T14:18:51.469Z,9.02
2023-01-12T14:21:26.637Z,9.27
2023-01-12T14:23:55.727Z,9.40
2023-01-12T14:26:27.206Z,9.75
2023-01-12T14:28:55.573Z,9.77
2023-01-12T14:31:28.461Z,8.48
2023-01-12T14:34:01.255Z,7.90
2023-01-12T14:36:31.416Z,9.13
2023-01-12T14:39:00.845Z,8.68
2023-01-12T14:41:48.970Z,8.57
2023-01-12T14:44:37.844Z,8.73
2023-01-12T14:47:09.663Z,8.88
2023-01-12T14:49:40.014Z,8.77
2023-01-12T14:52:24.382Z,10.43
2023-01-12T14:54:53.340Z,8.40
2023-01-12T14:57:26.495Z,8.45
2023-01-12T14:59:55.354Z,10.13
2023-01-12T15:02:42.060Z,8.95
2023-01-12T15:05:22.719Z,8.68
2023-01-12T15:07:56.615Z,9.13
2023-01-12T15:10:31.422Z,8.30
2023-01-12T15:13:13.031Z,8.05
2023-01-12T15:15:55.318Z,8.00
2023-01-12T15:18:41.307Z,9.15
2023-01-12T15:21:28.898Z,8.30
2023-01-12T15:24:15.725Z,8.82
2023-01-12T15:26:51.093Z,8.38
2023-01-12T15:29:24.186Z,8.52
2023-01-12T15:31:52.671Z,8.85
2023-01-12T15:34:21.073Z,9.38
2023-01-12T15:36:50.849Z,9.10
2023-01-12T15:39:19.229Z,8.73
2023-01-12T15:42:05.246Z,8.57
2023-01-12T15:44:33.539Z,8.30
2023-01-12T15:47:01.910Z,7.07
2023-01-12T15:49:30.153Z,8.30
2023-01-12T15:52:00.674Z,8.55
2023-01-12T15:54:28.985Z,8.60
2023-01-12T15:56:59.674Z,8.30
2023-01-12T15:59:28.129Z,9.23
2023-01-12T16:01:56.688Z,8.35
2023-01-12T16:04:44.011Z,8.65
2023-01-12T16:07:14.061Z,9.60
2023-01-12T16:09:48.937Z,8.45
2023-01-12T16:12:17.437Z,10.45
2023-01-12T16:14:46.290Z,11.05
2023-01-12T16:17:14.623Z,11.13
2023-01-12T16:19:44.813Z,11.30
2023-01-12T16:22:21.185Z,12.50
2023-01-12T16:24:54.028Z,13.13
2023-01-12T16:27:24.963Z,13.57
2023-01-12T16:29:54.100Z,12.90
2023-01-12T16:32:25.216Z,12.32
2023-01-12T16:34:54.146Z,14.30
2023-01-12T16:37:27.674Z,15.77
2023-01-12T16:39:56.611Z,14.63
2023-01-12T16:42:25.017Z,15.07
2023-01-12T16:44:54.086Z,13.57
2023-01-12T16:47:41.109Z,15.88
2023-01-12T16:50:29.145Z,15.15
2023-01-12T16:53:02.802Z,15.15
2023-01-12T16:55:37.223Z,16.27
2023-01-12T16:58:07.431Z,16.98
2023-01-12T17:00:37.346Z,15.40
2023-01-12T17:03:06.407Z,16.38
2023-01-12T17:05:39.306Z,17.23
2023-01-12T17:08:09.487Z,17.70
2023-01-12T17:10:38.195Z,16.50
2023-01-12T17:13:08.748Z,18.25
2023-01-12T17:15:37.443Z,16.83
2023-01-12T17:18:06.840Z,15.73
2023-01-12T17:20:37.829Z,15.15
2023-01-12T17:23:06.592Z,16.48
2023-01-12T17:25:36.517Z,18.05
2023-01-12T17:28:05.116Z,19.45
2023-01-12T17:30:33.676Z,16.02
2023-01-12T17:33:02.414Z,18.23
2023-01-12T17:35:30.961Z,16.88
2023-01-12T17:37:59.918Z,17.70
2023-01-12T17:40:39.156Z,18.60
2023-01-12T17:43:13.183Z,17.75
2023-01-12T17:45:46.277Z,18.50
2023-01-12T17:48:18.133Z,17.38
2023-01-12T17:50:47.262Z,18.38
2023-01-12T17:53:18.105Z,19.08
2023-01-12T17:55:48.794Z,18.15
2023-01-12T17:58:20.894Z,19.17
2023-01-12T18:00:49.355Z,17.65
2023-01-12T18:03:17.937Z,19.00
2023-01-12T18:05:57.709Z,18.15
2023-01-12T18:08:35.167Z,20.52
2023-01-12T18:11:04.064Z,19.90
2023-01-12T18:13:33.995Z,18.75
2023-01-12T18:16:02.538Z,19.08
2023-01-12T18:18:42.263Z,19.77
2023-01-12T18:21:18.684Z,18.15
2023-01-12T18:23:47.324Z,19.48
2023-01-12T18:26:17.593Z,18.83
2023-01-12T18:28:50.468Z,20.63
2023-01-12T18:31:21.249Z,18.98
2023-01-12T18:33:50.782Z,18.60
2023-01-12T18:36:21.184Z,17.33
2023-01-12T18:38:50.992Z,17.80
2023-01-12T18:41:38.855Z,19.20
2023-01-12T18:44:09.324Z,17.45
2023-01-12T18:47:04.437Z,19.08
2023-01-12T18:49:34.802Z,17.42
2023-01-12T18:52:21.614Z,17.88
2023-01-12T18:54:53.443Z,16.35
2023-01-12T18:57:25.241Z,17.50
2023-01-12T18:59:56.451Z,15.73
2023-01-12T19:02:24.975Z,17.88
2023-01-12T19:05:15.820Z,15.88
2023-01-12T19:08:03.818Z,15.63
2023-01-12T19:10:34.255Z,16.58
2023-01-12T19:13:52.703Z,16.55
2023-01-12T19:17:13.929Z,15.10
2023-01-12T19:19:44.309Z,14.68
2023-01-12T19:22:35.603Z,15.40
2023-01-12T19:25:21.396Z,14.68
2023-01-12T19:28:07.003Z,16.95
2023-01-12T19:30:35.532Z,14.32
2023-01-12T19:33:06.694Z,16.15
2023-01-12T19:35:35.014Z,15.43
2023-01-12T19:38:03.995Z,16.35
2023-01-12T19:40:36.124Z,13.15
2023-01-12T19:43:14.171Z,15.93
2023-01-12T19:45:44.247Z,13.68
2023-01-12T19:48:17.188Z,14.50
2023-01-12T19:50:45.836Z,15.18
2023-01-12T19:53:15.889Z,14.35
2023-01-12T19:55:44.435Z,14.48
2023-01-12T19:58:13.904Z,15.07
2023-01-12T20:00:45.229Z,13.43
2023-01-12T20:03:21.081Z,14.77
2023-01-12T20:05:51.947Z,13.93
2023-01-12T20:08:21.735Z,13.27
2023-01-12T20:10:54.784Z,13.80
2023-01-12T20:13:23.544Z,14.88
2023-01-12T20:15:52.534Z,14.38
2023-01-12T20:18:22.534Z,14.50
2023-01-12T20:20:51.036Z,14.25
2023-01-12T20:23:20.426Z,15.18
2023-01-12T20:25:48.858Z,15.30
2023-01-12T20:28:20.355Z,15.07
2023-01-12T20:30:48.677Z,14.52
2023-01-12T20:33:29.293Z,14.13
2023-01-12T20:36:12.467Z,14.57
2023-01-12T20:38:41.844Z,14.40
2023-01-12T20:41:23.131Z,13.65
2023-01-12T20:43:52.229Z,13.95
2023-01-12T20:46:20.679Z,14.18
2023-01-12T20:48:50.475Z,12.98
2023-01-12T20:51:19.112Z,13.15
2023-01-12T20:53:48.909Z,11.98
2023-01-12T20:56:17.485Z,12.05
2023-01-12T20:58:46.004Z,12.10
2023-01-12T21:01:28.114Z,12.85
2023-01-12T21:04:03.692Z,13.45
2023-01-12T21:06:36.054Z,11.65
2023-01-12T21:09:06.196Z,12.98
2023-01-12T21:11:37.732Z,11.93
2023-01-12T21:14:06.210Z,12.48
2023-01-12T21:16:38.812Z,11.45
2023-01-12T21:19:21.853Z,13.23
2023-01-12T21:21:50.822Z,14.70
2023-01-12T21:24:19.212Z,12.80
2023-01-12T21:26:47.806Z,11.75
2023-01-12T21:29:16.589Z,11.43
2023-01-12T21:31:48.215Z,12.82
2023-01-12T21:34:28.368Z,12.18
2023-01-12T21:36:57.113Z,10.65
2023-01-12T21:39:25.413Z,11.23
2023-01-12T21:42:19.543Z,11.70
2023-01-12T21:44:49.705Z,11.88
2023-01-12T21:47:20.885Z,10.77
2023-01-12T21:50:07.609Z,12.05
2023-01-12T21:52:35.967Z,12.15
2023-01-12T21:55:19.875Z,11.00
2023-01-12T21:57:55.832Z,10.13
2023-01-12T22:00:24.764Z,10.70
2023-01-12T22:02:55.224Z,10.95
2023-01-12T22:05:26.101Z,10.50
2023-01-12T22:07:57.702Z,11.38
2023-01-12T22:10:30.565Z,10.88
2023-01-12T22:13:03.024Z,10.27
2023-01-12T22:15:34.205Z,10.95
2023-01-12T22:18:02.651Z,11.20
2023-01-12T22:20:32.696Z,11.30
2023-01-12T22:23:01.003Z,10.90
2023-01-12T22:25:29.422Z,11.88
2023-01-12T22:27:58.578Z,11.15
2023-01-12T22:30:29.048Z,10.05
2023-01-12T22:32:59.993Z,9.80
2023-01-12T22:35:47.862Z,12.10
2023-01-12T22:38:17.739Z,10.55
2023-01-12T22:40:46.187Z,11.65
2023-01-12T22:43:32.427Z,10.27
2023-01-12T22:46:05.254Z,11.15
2023-01-12T22:48:39.812Z,9.52
2023-01-12T22:51:08.914Z,11.30
2023-01-12T22:53:38.665Z,10.50
2023-01-12T22:56:07.932Z,10.52
2023-01-12T22:58:48.104Z,9.88
2023-01-12T23:01:17.493Z,9.82
2023-01-12T23:03:49.989Z,10.75
2023-01-12T23:06:18.644Z,9.68
2023-01-12T23:08:48.771Z,10.32
2023-01-12T23:11:26.272Z,9.80
2023-01-12T23:13:57.136Z,10.73
2023-01-12T23:16:25.913Z,10.13
2023-01-12T23:18:55.528Z,10.35
2023-01-12T23:21:28.949Z,10.00
2023-01-12T23:24:00.876Z,9.02
2023-01-12T23:26:35.353Z,9.77
2023-01-12T23:29:03.993Z,9.60
2023-01-12T23:31:34.409Z,10.02
2023-01-12T23:34:03.323Z,10.02
2023-01-12T23:36:34.974Z,9.52
2023-01-12T23:39:07.240Z,9.73
2023-01-12T23:41:39.189Z,9.75
2023-01-12T23:44:11.231Z,9.73
2023-01-12T23:46:43.145Z,9.50
2023-01-12T23:49:12.390Z,9.25
2023-01-12T23:51:40.672Z,9.25
2023-01-12T23:54:15.964Z,9.25
2023-01-12T23:56:44.471Z,9.98
2023-01-12T23:59:13.981Z,11.55
